Time;durP1;ratioP1;P1;durP2;ratioP2;P2;SDS_P1;SDS_P2;PMS_P1;PMS_P2;Temp;Humidity;BMP_temperature;BMP_pressure;BME280_temperature;BME280_humidity;BME280_pressure;Samples;Min_cycle;Max_cycle;Signal;HPM_P1;HPM_P2
2022/03/28 00:02:00;;;;;;;9.30;3.90;;;;;3.30;98604.20;;;;111055;1247;42060;-64
2022/03/28 00:04:30;;;;;;;9.80;3.60;;;;;3.20;98601.80;;;;111157;1246;41152;-64
2022/03/28 00:07:00;;;;;;;9.70;3.40;;;;;3.20;98593.40;;;;111150;1247;42032;-65
2022/03/28 00:09:30;;;;;;;7.70;3.40;;;;;3.10;98594.80;;;;111202;1246;41607;-65
2022/03/28 00:12:00;;;;;;;7.80;3.20;;;;;3.08;98586.60;;;;111025;1247;41279;-65
2022/03/28 00:14:30;;;;;;;7.60;2.90;;;;;3.00;98581.60;;;;111091;1247;41170;-65
2022/03/28 00:17:01;;;;;;;9.20;3.50;;;;;2.90;98583.00;;;;111016;1248;41256;-64
2022/03/28 00:19:31;;;;;;;10.40;4.40;;;;;2.90;98583.40;;;;111082;1248;41180;-62
2022/03/28 00:22:02;;;;;;;11.90;4.60;;;;;2.90;98588.00;;;;111037;1247;41694;-63
2022/03/28 00:24:33;;;;;;;;;;;;;2.86;98594.00;;;;110992;1247;41704;-63
2022/03/28 00:27:03;;;;;;;8.00;3.50;;;;;2.80;98590.40;;;;111220;1246;41656;-63
2022/03/28 00:29:34;;;;;;;9.40;3.90;;;;;2.72;98592.80;;;;111104;1247;41443;-64
2022/03/28 00:32:05;;;;;;;9.50;3.60;;;;;2.70;98589.40;;;;111092;1247;42093;-65
2022/03/28 00:34:35;;;;;;;12.70;3.70;;;;;2.60;98591.00;;;;111176;1247;41151;-64
2022/03/28 00:37:06;;;;;;;8.80;3.50;;;;;2.60;98595.20;;;;111091;1247;41150;-63
2022/03/28 00:39:36;;;;;;;8.20;3.40;;;;;2.50;98598.40;;;;111043;1249;42376;-63
2022/03/28 00:42:06;;;;;;;9.90;3.80;;;;;2.50;98596.40;;;;111053;1247;43012;-65
2022/03/28 00:44:36;;;;;;;9.00;3.60;;;;;2.50;98593.40;;;;111083;1247;43044;-64
2022/03/28 00:47:06;;;;;;;10.00;3.60;;;;;2.40;98599.20;;;;110851;1249;42344;-63
2022/03/28 00:49:37;;;;;;;8.40;3.40;;;;;2.40;98594.00;;;;110890;1247;41480;-64
2022/03/28 00:52:07;;;;;;;9.60;3.60;;;;;2.32;98594.00;;;;111121;1247;41263;-63
2022/03/28 00:54:38;;;;;;;9.40;3.60;;;;;2.30;98604.60;;;;111100;1245;42051;-64
2022/03/28 00:57:09;;;;;;;8.10;3.30;;;;;2.24;98600.00;;;;111009;1247;41151;-64
2022/03/28 00:59:39;;;;;;;10.70;3.60;;;;;2.20;98598.60;;;;111143;1247;41154;-64
2022/03/28 01:02:10;;;;;;;8.20;3.20;;;;;2.16;98596.60;;;;111071;1247;42363;-65
2022/03/28 01:04:41;;;;;;;11.70;3.80;;;;;2.10;98596.80;;;;111122;1249;41607;-64
2022/03/28 01:07:12;;;;;;;10.30;3.90;;;;;2.10;98594.80;;;;111295;1246;41266;-65
2022/03/28 01:09:42;;;;;;;10.00;3.40;;;;;2.00;98586.80;;;;111092;1247;41140;-64
2022/03/28 01:12:13;;;;;;;9.50;3.30;;;;;2.00;98588.40;;;;111029;1247;41216;-62
2022/03/28 01:14:44;;;;;;;10.10;3.80;;;;;2.00;98597.60;;;;111059;1247;41773;-63
2022/03/28 01:20:06;;;;;;;9.90;3.70;;;;;1.90;98599.60;;;;111290;1246;41361;-64
2022/03/28 01:22:38;;;;;;;10.40;3.80;;;;;1.90;98600.00;;;;111175;1247;42408;-63
2022/03/28 01:25:09;;;;;;;9.70;3.60;;;;;1.80;98598.80;;;;111421;1245;42370;-63
2022/03/28 01:27:40;;;;;;;9.60;3.50;;;;;1.80;98593.80;;;;110868;1248;42532;-63
2022/03/28 01:30:11;;;;;;;10.30;3.60;;;;;1.70;98598.20;;;;111036;1249;41145;-64
2022/03/28 01:32:41;;;;;;;;;;;;;1.70;98593.00;;;;111078;1247;42047;-64
2022/03/28 01:35:12;;;;;;;9.40;4.00;;;;;1.60;98599.00;;;;110924;1248;41269;-63
2022/03/28 01:37:43;;;;;;;11.00;4.40;;;;;1.60;98595.80;;;;110948;1250;42074;-63
2022/03/28 01:40:15;;;;;;;11.30;4.90;;;;;1.60;98598.20;;;;111148;1247;41151;-65
2022/03/28 01:42:49;;;;;;;11.40;4.10;;;;;1.50;98593.40;;;;111126;1248;41601;-63
2022/03/28 01:45:19;;;;;;;12.70;4.40;;;;;1.50;98599.40;;;;111128;1245;41252;-65
2022/03/28 01:47:49;;;;;;;9.90;3.90;;;;;1.40;98598.40;;;;111055;1248;42380;-64
2022/03/28 01:50:20;;;;;;;;;;;;;1.40;98594.00;;;;111148;1246;41295;-66
2022/03/28 01:52:51;;;;;;;11.00;4.10;;;;;1.30;98593.40;;;;111024;1247;41256;-64
2022/03/28 01:55:20;;;;;;;9.40;3.90;;;;;1.30;98589.80;;;;110911;1249;41323;-66
2022/03/28 01:57:52;;;;;;;11.50;4.40;;;;;1.24;98591.20;;;;111006;1247;41130;-65
2022/03/28 02:00:25;;;;;;;9.30;3.80;;;;;1.20;98594.40;;;;111060;1247;41894;-64
2022/03/28 02:02:56;;;;;;;11.50;4.10;;;;;1.20;98600.20;;;;111065;1246;42375;-63
2022/03/28 02:05:27;;;;;;;10.20;3.80;;;;;1.14;98592.60;;;;111040;1247;41162;-63
2022/03/28 02:07:59;;;;;;;8.50;3.30;;;;;1.10;98596.20;;;;111081;1247;41153;-64
2022/03/28 02:10:28;;;;;;;8.20;3.10;;;;;1.10;98590.00;;;;111080;1247;41220;-66
2022/03/28 02:12:59;;;;;;;11.00;3.70;;;;;1.10;98584.60;;;;111089;1247;41606;-65
2022/03/28 02:15:29;;;;;;;9.20;3.70;;;;;1.10;98586.40;;;;111124;1247;41898;-65
2022/03/28 02:17:59;;;;;;;11.70;4.00;;;;;1.00;98588.80;;;;111133;1247;42383;-65
2022/03/28 02:20:29;;;;;;;10.30;3.60;;;;;1.00;98588.00;;;;110943;1248;41259;-64
2022/03/28 02:22:58;;;;;;;10.40;3.90;;;;;0.90;98588.60;;;;111065;1247;41165;-65
2022/03/28 02:25:28;;;;;;;10.00;3.80;;;;;0.86;98584.80;;;;111054;1248;41136;-65
2022/03/28 02:27:58;;;;;;;10.00;3.70;;;;;0.80;98584.60;;;;111107;1247;41259;-65
2022/03/28 02:30:28;;;;;;;9.40;3.90;;;;;0.80;98588.00;;;;111169;1247;41256;-65
2022/03/28 02:32:58;;;;;;;9.50;3.70;;;;;0.70;98587.20;;;;111152;1246;41144;-64
2022/03/28 02:35:28;;;;;;;12.30;4.50;;;;;0.70;98589.40;;;;111045;1248;41608;-64
2022/03/28 02:38:01;;;;;;;11.90;4.70;;;;;0.70;98592.60;;;;111081;1248;41202;-64
2022/03/28 02:40:35;;;;;;;11.70;4.90;;;;;0.60;98591.60;;;;111048;1247;41630;-65
2022/03/28 02:43:04;;;;;;;13.20;4.80;;;;;0.60;98595.80;;;;111013;1248;41784;-64
2022/03/28 02:45:36;;;;;;;11.40;4.70;;;;;0.54;98591.60;;;;111087;1247;42085;-63
2022/03/28 02:48:06;;;;;;;12.20;4.60;;;;;0.50;98596.20;;;;111095;1246;41161;-64
2022/03/28 02:50:36;;;;;;;12.40;4.20;;;;;0.50;98607.60;;;;111089;1248;42075;-63
2022/03/28 02:53:07;;;;;;;11.70;3.60;;;;;0.50;98606.80;;;;111019;1247;41261;-64
2022/03/28 02:55:38;;;;;;;;;;;;;0.50;98607.00;;;;111074;1247;41151;-63
2022/03/28 02:58:08;;;;;;;9.90;4.00;;;;;0.40;98602.40;;;;111095;1247;41248;-64
2022/03/28 03:00:38;;;;;;;11.30;4.00;;;;;0.40;98611.00;;;;111127;1245;41499;-64
2022/03/28 03:03:08;;;;;;;10.40;4.00;;;;;0.40;98612.80;;;;110841;1247;41155;-64
2022/03/28 03:05:39;;;;;;;11.20;3.90;;;;;0.32;98611.00;;;;111110;1247;41321;-65
2022/03/28 03:08:10;;;;;;;10.50;3.90;;;;;0.30;98613.20;;;;111093;1247;41139;-66
2022/03/28 03:10:40;;;;;;;8.10;3.20;;;;;0.30;98606.40;;;;111249;1247;41603;-66
2022/03/28 03:13:10;;;;;;;10.70;3.70;;;;;0.30;98603.80;;;;110912;1249;41428;-66
2022/03/28 03:15:40;;;;;;;8.70;3.70;;;;;0.30;98603.00;;;;110781;1247;41445;-64
2022/03/28 03:18:11;;;;;;;11.60;3.50;;;;;0.30;98607.20;;;;111056;1246;41131;-63
2022/03/28 03:20:40;;;;;;;9.30;3.40;;;;;0.30;98607.80;;;;111071;1247;41269;-63
2022/03/28 03:23:11;;;;;;;7.70;3.20;;;;;0.30;98601.00;;;;111047;1247;41337;-65
2022/03/28 03:25:41;;;;;;;8.40;3.40;;;;;0.20;98600.60;;;;111119;1247;41955;-65
2022/03/28 03:28:10;;;;;;;10.90;4.30;;;;;0.20;98598.60;;;;111171;1247;41243;-64
2022/03/28 03:30:40;;;;;;;11.10;4.10;;;;;0.20;98593.20;;;;111075;1247;41652;-65
2022/03/28 03:33:10;;;;;;;9.60;3.80;;;;;0.12;98589.80;;;;111051;1249;41199;-64
2022/03/28 03:35:40;;;;;;;10.30;4.00;;;;;0.10;98590.40;;;;111061;1245;41853;-65
2022/03/28 03:38:10;;;;;;;10.50;4.10;;;;;0.10;98593.20;;;;111090;1247;41461;-64
2022/03/28 03:40:40;;;;;;;10.00;3.90;;;;;0.10;98591.00;;;;111113;1247;41521;-65
2022/03/28 03:43:10;;;;;;;12.70;4.90;;;;;0.12;98586.80;;;;111107;1247;41243;-65
2022/03/28 03:45:40;;;;;;;13.50;4.80;;;;;0.10;98588.20;;;;110971;1247;41147;-64
2022/03/28 03:48:10;;;;;;;11.60;4.80;;;;;0.10;98588.20;;;;111069;1246;41319;-66
2022/03/28 03:50:41;;;;;;;11.00;4.50;;;;;0.14;98588.60;;;;111076;1248;42224;-66
2022/03/28 03:53:12;;;;;;;10.60;3.90;;;;;0.10;98585.60;;;;111276;1246;41147;-64
2022/03/28 03:55:42;;;;;;;11.70;4.40;;;;;0.10;98582.60;;;;111111;1246;41393;-63
2022/03/28 03:58:12;;;;;;;18.50;5.90;;;;;0.10;98582.40;;;;111244;1246;42494;-65
2022/03/28 04:00:41;;;;;;;13.70;4.80;;;;;0.10;98586.40;;;;111133;1247;41464;-64
2022/03/28 04:03:11;;;;;;;11.50;4.60;;;;;0.04;98577.60;;;;111024;1247;41859;-63
2022/03/28 04:05:41;;;;;;;11.40;4.90;;;;;0.00;98583.80;;;;111113;1247;41132;-63
2022/03/28 04:08:11;;;;;;;16.20;4.90;;;;;-0.10;98586.80;;;;110942;1248;41719;-64
2022/03/28 04:10:42;;;;;;;10.40;4.10;;;;;-0.10;98586.80;;;;111218;1247;41151;-64
2022/03/28 04:13:14;;;;;;;9.70;4.10;;;;;-0.10;98596.40;;;;111067;1248;42319;-64
2022/03/28 04:15:43;;;;;;;9.10;3.70;;;;;-0.10;98591.80;;;;111055;1247;41142;-64
2022/03/28 04:18:14;;;;;;;12.90;5.30;;;;;-0.20;98595.60;;;;111115;1247;41160;-66
2022/03/28 04:20:44;;;;;;;11.80;4.80;;;;;-0.20;98592.40;;;;111002;1247;41640;-66
2022/03/28 04:23:14;;;;;;;14.80;4.50;;;;;-0.20;98592.60;;;;111070;1247;41896;-64
2022/03/28 04:25:43;;;;;;;11.70;4.30;;;;;-0.24;98592.40;;;;111107;1247;41137;-64
2022/03/28 04:28:13;;;;;;;14.00;3.90;;;;;-0.30;98592.40;;;;111169;1247;41155;-63
2022/03/28 04:30:43;;;;;;;13.30;4.50;;;;;-0.30;98589.20;;;;111071;1247;42232;-66
2022/03/28 04:33:12;;;;;;;9.70;4.10;;;;;-0.30;98584.60;;;;110936;1246;41155;-66
2022/03/28 04:35:43;;;;;;;10.40;4.20;;;;;-0.30;98584.20;;;;111067;1249;41134;-64
2022/03/28 04:38:12;;;;;;;9.10;3.70;;;;;-0.32;98582.80;;;;110957;1247;41975;-64
2022/03/28 04:40:42;;;;;;;9.30;3.90;;;;;-0.32;98582.00;;;;111158;1247;41311;-66
2022/03/28 04:43:12;;;;;;;13.80;4.80;;;;;-0.30;98582.20;;;;110939;1247;41266;-65
2022/03/28 04:45:41;;;;;;;10.00;3.80;;;;;-0.30;98581.20;;;;111059;1247;41147;-66
2022/03/28 04:48:11;;;;;;;10.70;3.90;;;;;-0.20;98572.80;;;;111094;1246;41250;-63
2022/03/28 04:50:41;;;;;;;12.50;4.70;;;;;-0.10;98572.40;;;;111063;1247;41524;-64
2022/03/28 04:53:10;;;;;;;15.10;5.00;;;;;0.00;98573.40;;;;111016;1247;41594;-63
2022/03/28 04:55:40;;;;;;;13.30;5.40;;;;;0.10;98571.20;;;;111310;1245;41930;-63
2022/03/28 04:58:10;;;;;;;17.70;6.80;;;;;0.16;98578.80;;;;110982;1249;41275;-63
2022/03/28 05:00:39;;;;;;;27.40;9.30;;;;;0.20;98575.60;;;;111042;1247;41574;-63
2022/03/28 05:03:09;;;;;;;30.30;10.10;;;;;0.20;98584.80;;;;111125;1247;41342;-63
2022/03/28 05:05:38;;;;;;;34.40;12.40;;;;;0.00;98593.40;;;;111152;1247;41123;-63
2022/03/28 05:08:08;;;;;;;23.60;9.50;;;;;-0.20;98597.80;;;;111116;1247;41336;-64
2022/03/28 05:10:38;;;;;;;28.60;8.80;;;;;-0.20;98603.60;;;;110830;1249;41639;-63
2022/03/28 05:13:07;;;;;;;17.00;7.40;;;;;-0.10;98605.20;;;;111189;1247;42402;-64
2022/03/28 05:15:36;;;;;;;16.60;5.30;;;;;0.00;98612.20;;;;111070;1246;41533;-64
2022/03/28 05:18:06;;;;;;;15.90;6.00;;;;;0.10;98614.40;;;;111001;1247;41726;-65
2022/03/28 05:20:36;;;;;;;17.00;6.20;;;;;0.20;98614.40;;;;111296;1247;41196;-64
2022/03/28 05:23:05;;;;;;;13.70;5.30;;;;;0.38;98612.20;;;;111152;1247;41159;-64
2022/03/28 05:25:34;;;;;;;15.70;6.70;;;;;0.50;98612.20;;;;111126;1245;42449;-63
2022/03/28 05:28:05;;;;;;;18.50;6.10;;;;;0.62;98615.20;;;;111007;1247;41144;-64
2022/03/28 05:30:35;;;;;;;16.00;6.90;;;;;0.80;98617.80;;;;110963;1247;41329;-63
2022/03/28 05:33:05;;;;;;;17.10;6.90;;;;;1.00;98613.00;;;;111047;1247;41158;-62
2022/03/28 05:35:35;;;;;;;15.50;6.30;;;;;1.16;98618.60;;;;111081;1247;41746;-64
2022/03/28 05:38:04;;;;;;;23.20;10.10;;;;;1.40;98610.20;;;;111021;1248;41352;-65
2022/03/28 05:40:34;;;;;;;27.40;10.30;;;;;1.60;98609.80;;;;111020;1248;41253;-64
2022/03/28 05:43:03;;;;;;;29.20;11.30;;;;;1.80;98609.80;;;;111043;1248;41637;-64
2022/03/28 05:45:35;;;;;;;26.10;11.30;;;;;1.98;98607.00;;;;110734;1247;41608;-63
2022/03/28 05:48:04;;;;;;;24.80;9.90;;;;;2.10;98603.80;;;;111034;1247;41743;-62
2022/03/28 05:50:33;;;;;;;22.30;9.30;;;;;2.20;98602.80;;;;110832;1247;41599;-62
2022/03/28 05:53:02;;;;;;;31.30;10.30;;;;;2.40;98608.80;;;;111079;1246;41257;-65
2022/03/28 05:55:32;;;;;;;23.90;8.90;;;;;2.54;98607.20;;;;111051;1248;41605;-63
2022/03/28 05:58:02;;;;;;;18.00;8.70;;;;;2.78;98607.00;;;;110884;1247;41264;-63
2022/03/28 06:00:31;;;;;;;21.50;8.40;;;;;3.00;98596.60;;;;111070;1247;41666;-62
2022/03/28 06:03:00;;;;;;;20.10;7.90;;;;;3.30;98597.00;;;;111027;1248;41172;-62
2022/03/28 06:05:40;;;;;;;21.70;7.90;;;;;3.52;98592.80;;;;110984;1249;41263;-62
2022/03/28 06:08:10;;;;;;;24.50;9.30;;;;;3.76;98582.80;;;;110779;1248;41154;-64
2022/03/28 06:10:39;;;;;;;26.30;9.60;;;;;4.04;98576.40;;;;110878;1247;41152;-63
2022/03/28 06:13:09;;;;;;;19.50;8.10;;;;;4.30;98579.60;;;;110975;1248;42360;-62
2022/03/28 06:15:38;;;;;;;26.60;10.30;;;;;4.60;98571.20;;;;110907;1248;41653;-63
2022/03/28 06:18:08;;;;;;;21.80;9.40;;;;;4.88;98565.20;;;;110989;1248;41160;-63
2022/03/28 06:20:38;;;;;;;24.30;11.30;;;;;5.14;98564.40;;;;110815;1249;41163;-64
2022/03/28 06:23:09;;;;;;;25.60;9.10;;;;;5.40;98562.40;;;;110753;1248;41257;-61
2022/03/28 06:25:38;;;;;;;29.00;9.40;;;;;5.60;98560.60;;;;110768;1249;41907;-65
2022/03/28 06:28:09;;;;;;;29.20;10.20;;;;;5.80;98557.20;;;;110830;1250;41631;-67
2022/03/28 06:30:38;;;;;;;23.50;9.70;;;;;5.70;98557.20;;;;110928;1250;42002;-65
2022/03/28 06:33:08;;;;;;;26.00;9.50;;;;;5.80;98555.60;;;;111033;1247;41133;-63
2022/03/28 06:35:39;;;;;;;16.70;7.40;;;;;5.90;98553.60;;;;110995;1248;41542;-64
2022/03/28 06:38:08;;;;;;;19.90;6.90;;;;;6.00;98550.80;;;;111083;1247;42927;-63
2022/03/28 06:40:37;;;;;;;16.70;6.40;;;;;6.22;98549.00;;;;110966;1247;42150;-62
2022/03/28 06:43:07;;;;;;;18.20;6.90;;;;;6.50;98546.20;;;;110875;1250;41269;-62
2022/03/28 06:45:36;;;;;;;15.10;6.60;;;;;6.80;98545.60;;;;110968;1247;41162;-63
2022/03/28 06:48:06;;;;;;;21.60;6.70;;;;;7.16;98543.60;;;;111007;1250;41325;-64
2022/03/28 06:50:56;;;;;;;12.40;5.40;;;;;7.60;98540.40;;;;110946;1247;41252;-63
2022/03/28 06:53:25;;;;;;;16.20;7.10;;;;;7.98;98542.40;;;;110725;1248;41147;-64
2022/03/28 06:55:55;;;;;;;16.00;6.90;;;;;8.30;98541.20;;;;110902;1248;41604;-63
2022/03/28 06:58:25;;;;;;;18.30;6.40;;;;;8.64;98534.00;;;;110817;1247;42522;-64
2022/03/28 07:00:55;;;;;;;13.60;5.60;;;;;8.98;98530.60;;;;110945;1247;42450;-62
2022/03/28 07:03:25;;;;;;;15.30;5.90;;;;;9.30;98524.40;;;;110875;1247;41179;-65
2022/03/28 07:05:54;;;;;;;13.60;5.50;;;;;9.54;98515.60;;;;111010;1248;41137;-64
2022/03/28 07:08:23;;;;;;;12.90;6.00;;;;;9.88;98520.20;;;;110901;1248;42121;-66
2022/03/28 07:10:53;;;;;;;15.70;6.80;;;;;10.20;98516.80;;;;110904;1249;41146;-61
2022/03/28 07:13:22;;;;;;;17.00;6.00;;;;;10.48;98510.80;;;;111071;1247;41153;-63
2022/03/28 07:15:51;;;;;;;12.60;5.40;;;;;10.80;98510.40;;;;110833;1250;41153;-64
2022/03/28 07:18:21;;;;;;;14.90;5.50;;;;;11.08;98501.60;;;;110876;1247;41259;-64
2022/03/28 07:20:51;;;;;;;14.20;5.50;;;;;11.30;98494.20;;;;110862;1248;41264;-64
2022/03/28 07:23:20;;;;;;;11.10;4.30;;;;;11.52;98500.80;;;;111011;1247;41150;-64
2022/03/28 07:25:50;;;;;;;11.30;4.80;;;;;11.80;98499.20;;;;110945;1248;41153;-65
2022/03/28 07:28:19;;;;;;;15.80;6.10;;;;;12.00;98494.20;;;;110983;1248;42909;-64
2022/03/28 07:30:48;;;;;;;18.40;5.90;;;;;12.00;98491.80;;;;110869;1249;41961;-63
2022/03/28 07:33:18;;;;;;;15.40;5.30;;;;;12.08;98504.60;;;;110338;1248;631676;-61
2022/03/28 07:35:47;;;;;;;16.80;5.80;;;;;12.20;98502.20;;;;111069;1247;41164;-63
2022/03/28 07:38:16;;;;;;;13.80;5.70;;;;;12.32;98502.80;;;;111084;1247;41692;-63
2022/03/28 07:40:46;;;;;;;11.20;5.10;;;;;12.42;98511.20;;;;111031;1247;41556;-63
2022/03/28 07:43:16;;;;;;;13.90;5.30;;;;;12.30;98509.00;;;;110814;1250;41248;-64
2022/03/28 07:45:46;;;;;;;12.60;5.30;;;;;12.40;98507.80;;;;110957;1249;41150;-65
2022/03/28 07:48:15;;;;;;;12.70;4.80;;;;;12.48;98505.80;;;;110798;1250;41215;-64
2022/03/28 07:50:46;;;;;;;8.30;3.70;;;;;12.70;98499.80;;;;110938;1249;40732;-62
2022/03/28 07:53:20;;;;;;;11.80;4.90;;;;;13.04;98495.80;;;;111028;1247;41350;-63
2022/03/28 07:55:50;;;;;;;11.50;4.80;;;;;13.38;98491.40;;;;110861;1250;41143;-65
2022/03/28 07:58:20;;;;;;;11.20;4.60;;;;;13.64;98489.60;;;;110864;1248;41140;-63
2022/03/28 08:00:49;;;;;;;13.90;5.40;;;;;13.80;98489.20;;;;110931;1250;41330;-62
2022/03/28 08:03:18;;;;;;;14.60;5.10;;;;;13.80;98491.80;;;;110983;1247;41934;-61
2022/03/28 08:05:47;;;;;;;12.30;4.90;;;;;13.80;98484.60;;;;110830;1249;41520;-65
2022/03/28 08:08:17;;;;;;;12.20;4.40;;;;;13.90;98483.20;;;;110757;1249;41260;-63
2022/03/28 08:10:47;;;;;;;15.90;4.60;;;;;13.98;98481.00;;;;110847;1250;42102;-65
2022/03/28 08:13:17;;;;;;;12.50;5.30;;;;;14.30;98479.80;;;;111033;1247;41321;-65
2022/03/28 08:15:47;;;;;;;12.00;4.90;;;;;14.40;98475.80;;;;110829;1248;41561;-64
2022/03/28 08:18:16;;;;;;;12.60;4.70;;;;;14.60;98469.20;;;;110833;1250;41248;-65
2022/03/28 08:20:46;;;;;;;10.90;4.80;;;;;14.70;98469.00;;;;110809;1250;42283;-62
2022/03/28 08:23:16;;;;;;;12.50;5.20;;;;;14.94;98461.20;;;;111032;1249;41275;-63
2022/03/28 08:25:45;;;;;;;11.90;4.70;;;;;15.12;98462.00;;;;110821;1250;41730;-63
2022/03/28 08:28:14;;;;;;;10.80;4.50;;;;;15.40;98463.00;;;;111033;1249;41950;-64
2022/03/28 08:30:44;;;;;;;10.80;4.70;;;;;15.74;98454.00;;;;111047;1247;41351;-66
2022/03/28 08:33:13;;;;;;;11.80;5.10;;;;;15.90;98451.20;;;;110909;1248;41152;-64
2022/03/28 08:35:43;;;;;;;11.60;5.50;;;;;15.98;98440.80;;;;110929;1249;41988;-65
2022/03/28 08:38:13;;;;;;;13.60;4.80;;;;;15.92;98439.40;;;;111094;1247;41184;-63
2022/03/28 08:40:43;;;;;;;11.00;4.60;;;;;16.22;98434.20;;;;111133;1248;41159;-63
2022/03/28 08:43:17;;;;;;;13.70;5.90;;;;;16.34;98429.20;;;;111150;1247;41139;-67
2022/03/28 08:45:49;;;;;;;27.30;5.00;;;;;16.40;98427.60;;;;111094;1247;41259;-67
2022/03/28 08:48:19;;;;;;;11.40;4.90;;;;;16.50;98426.40;;;;110818;1247;41150;-63
2022/03/28 08:50:54;;;;;;;11.80;4.50;;;;;16.80;98428.00;;;;111098;1246;41144;-64
2022/03/28 08:53:24;;;;;;;12.50;5.40;;;;;17.24;98421.60;;;;110887;1249;41267;-67
2022/03/28 08:55:53;;;;;;;12.00;4.80;;;;;17.34;98416.00;;;;110730;1247;41606;-64
2022/03/28 08:58:22;;;;;;;12.10;4.90;;;;;17.42;98416.00;;;;110932;1249;42574;-63
2022/03/28 09:00:52;;;;;;;12.70;4.80;;;;;17.80;98413.40;;;;110906;1247;41988;-66
2022/03/28 09:03:35;;;;;;;16.20;4.90;;;;;18.32;98413.20;;;;110843;1249;42115;-66
2022/03/28 09:06:33;;;;;;;12.30;4.60;;;;;18.90;98412.40;;;;110875;1247;42353;-66
2022/03/28 09:09:18;;;;;;;14.30;6.50;;;;;19.60;98408.20;;;;111068;1247;41144;-66
2022/03/28 09:11:52;;;;;;;16.00;7.60;;;;;19.16;98405.80;;;;110801;1247;41263;-68
2022/03/28 09:14:32;;;;;;;16.10;6.90;;;;;19.30;98408.60;;;;110826;1247;41270;-71
2022/03/28 09:17:05;;;;;;;13.70;6.50;;;;;19.20;98399.20;;;;111141;1247;41527;-67
2022/03/28 09:19:58;;;;;;;15.00;5.80;;;;;20.16;98395.80;;;;111070;1247;41148;-71
2022/03/28 09:22:32;;;;;;;20.90;7.60;;;;;20.98;98388.40;;;;111058;1249;41152;-62
2022/03/28 09:25:07;;;;;;;12.00;5.50;;;;;21.34;98391.00;;;;111155;1247;41382;-65
2022/03/28 09:27:41;;;;;;;15.00;6.30;;;;;22.06;98385.60;;;;111074;1248;41593;-63
2022/03/28 09:30:14;;;;;;;14.90;6.30;;;;;22.70;98384.60;;;;111114;1247;41168;-62
2022/03/28 09:32:54;;;;;;;11.20;4.60;;;;;23.48;98379.80;;;;111045;1249;41149;-63
2022/03/28 09:35:25;;;;;;;12.10;4.90;;;;;23.66;98371.60;;;;111033;1247;41155;-66
2022/03/28 09:38:04;;;;;;;;;;;;;24.94;98359.40;;;;110775;1248;41613;-63
2022/03/28 09:40:40;;;;;;;11.20;4.90;;;;;25.58;98357.00;;;;111087;1247;41246;-64
2022/03/28 09:43:21;;;;;;;11.30;4.80;;;;;25.94;98356.40;;;;111074;1247;40760;-63
2022/03/28 09:45:55;;;;;;;11.40;4.80;;;;;26.14;98353.00;;;;110766;1249;41686;-64
2022/03/28 09:48:27;;;;;;;10.80;4.80;;;;;26.76;98348.60;;;;110730;1250;41143;-63
2022/03/28 09:50:58;;;;;;;10.70;4.70;;;;;27.22;98347.20;;;;111012;1249;42221;-70
2022/03/28 09:53:32;;;;;;;12.10;4.50;;;;;27.82;98340.20;;;;110846;1250;41263;-69
2022/03/28 09:56:09;;;;;;;11.40;4.20;;;;;28.00;98334.80;;;;110919;1250;41506;-68
2022/03/28 09:58:46;;;;;;;11.00;4.60;;;;;28.90;98332.00;;;;110853;1249;41597;-71
2022/03/28 10:01:19;;;;;;;11.80;4.60;;;;;29.46;98333.20;;;;111061;1249;42080;-69
2022/03/28 10:03:52;;;;;;;9.80;3.80;;;;;29.52;98332.20;;;;110803;1250;41647;-67
2022/03/28 10:06:22;;;;;;;16.60;4.70;;;;;29.74;98322.20;;;;111099;1248;41263;-70
2022/03/28 10:08:52;;;;;;;9.70;4.50;;;;;29.86;98316.40;;;;111033;1247;41255;-71
2022/03/28 10:11:21;;;;;;;11.30;3.80;;;;;29.36;98311.80;;;;111084;1248;41260;-65
2022/03/28 10:13:51;;;;;;;9.60;3.50;;;;;28.80;98314.00;;;;110868;1248;41154;-63
2022/03/28 10:16:22;;;;;;;14.90;3.50;;;;;29.50;98311.00;;;;110744;1250;41271;-62
2022/03/28 10:18:52;;;;;;;9.70;3.20;;;;;30.56;98307.60;;;;111075;1249;41136;-62
2022/03/28 10:21:23;;;;;;;10.90;3.50;;;;;31.88;98301.80;;;;110802;1250;41794;-65
2022/03/28 10:24:01;;;;;;;8.30;3.10;;;;;32.94;98297.80;;;;111058;1247;41204;-69
2022/03/28 10:26:33;;;;;;;8.80;3.00;;;;;33.80;98295.60;;;;110913;1250;41880;-68
2022/03/28 10:29:19;;;;;;;7.50;2.90;;;;;34.90;98292.20;;;;111107;1247;41253;-65
2022/03/28 10:32:00;;;;;;;10.70;2.90;;;;;36.14;98283.60;;;;111058;1248;41797;-63
2022/03/28 10:34:56;;;;;;;10.10;3.10;;;;;37.40;98273.20;;;;110940;1250;41152;-64
2022/03/28 10:37:31;;;;;;;7.50;3.10;;;;;38.52;98270.40;;;;111020;1248;41864;-72
2022/03/28 10:40:21;;;;;;;8.70;3.20;;;;;39.06;98264.80;;;;110823;1249;41163;-69
2022/03/28 10:43:09;;;;;;;9.20;3.50;;;;;39.02;98262.00;;;;111063;1247;41714;-69
2022/03/28 10:45:51;;;;;;;8.60;3.40;;;;;38.42;98262.00;;;;111093;1247;41190;-64
2022/03/28 10:48:33;;;;;;;8.10;3.40;;;;;38.10;98254.20;;;;111085;1247;41136;-65
2022/03/28 10:51:18;;;;;;;8.70;3.60;;;;;37.76;98249.80;;;;111126;1247;41730;-65
2022/03/28 10:53:52;;;;;;;12.30;3.80;;;;;34.74;98247.20;;;;110940;1249;41151;-70
2022/03/28 10:56:25;;;;;;;10.90;4.00;;;;;33.62;98244.40;;;;111038;1247;41120;-66
2022/03/28 10:58:56;;;;;;;10.60;4.40;;;;;34.78;98237.40;;;;110893;1250;41143;-71
2022/03/28 11:01:28;;;;;;;19.20;5.10;;;;;35.40;98234.60;;;;110762;1251;41175;-69
2022/03/28 11:04:19;;;;;;;16.50;5.30;;;;;35.98;98224.80;;;;110813;1250;41185;-69
2022/03/28 11:07:11;;;;;;;46.80;6.10;;;;;36.70;98222.80;;;;111034;1248;41723;-65
2022/03/28 11:09:49;;;;;;;10.70;3.90;;;;;37.40;98215.80;;;;111044;1249;42562;-66
2022/03/28 11:12:28;;;;;;;11.80;4.40;;;;;38.08;98216.40;;;;111078;1247;41271;-71
2022/03/28 11:15:05;;;;;;;13.40;4.50;;;;;38.38;98208.00;;;;111118;1248;41266;-72
2022/03/28 11:17:39;;;;;;;9.20;4.10;;;;;38.92;98207.60;;;;111106;1247;41123;-70
2022/03/28 11:20:18;;;;;;;12.70;4.90;;;;;38.14;98201.60;;;;111104;1248;41161;-71
2022/03/28 11:22:55;;;;;;;8.30;3.70;;;;;37.60;98192.60;;;;111115;1246;41143;-66
2022/03/28 11:25:27;;;;;;;10.70;4.20;;;;;37.88;98191.00;;;;111144;1247;42188;-73
2022/03/28 11:28:08;;;;;;;9.80;4.00;;;;;37.36;98183.20;;;;111095;1247;41171;-65
2022/03/28 11:30:39;;;;;;;8.70;3.80;;;;;37.78;98179.60;;;;111014;1248;41142;-73
2022/03/28 11:33:14;;;;;;;9.60;3.80;;;;;38.00;98170.60;;;;110883;1248;41153;-72
2022/03/28 11:36:03;;;;;;;9.90;3.90;;;;;37.98;98169.20;;;;111063;1246;41153;-67
2022/03/28 11:38:35;;;;;;;11.30;4.40;;;;;38.00;98158.00;;;;111111;1247;41159;-74
2022/03/28 11:41:04;;;;;;;12.80;4.30;;;;;38.04;98155.40;;;;111122;1248;41564;-72
2022/03/28 11:43:42;;;;;;;11.10;4.90;;;;;38.00;98153.60;;;;111026;1248;41154;-65
2022/03/28 11:46:19;;;;;;;15.30;4.50;;;;;37.02;98154.40;;;;110998;1249;41135;-74
2022/03/28 11:48:58;;;;;;;9.60;4.30;;;;;34.90;98151.80;;;;111073;1247;42473;-73
2022/03/28 11:51:30;;;;;;;9.50;4.10;;;;;33.46;98139.40;;;;110998;1248;41534;-74
2022/03/28 11:54:01;;;;;;;9.40;3.90;;;;;32.80;98139.00;;;;111027;1247;41418;-72
2022/03/28 11:56:32;;;;;;;13.70;4.20;;;;;33.18;98130.20;;;;111022;1249;41140;-68
2022/03/28 11:59:07;;;;;;;10.30;4.20;;;;;33.68;98124.20;;;;111108;1247;41140;-63
2022/03/28 12:01:37;;;;;;;11.60;4.90;;;;;33.18;98120.80;;;;111107;1247;42080;-68
2022/03/28 12:04:06;;;;;;;13.50;4.40;;;;;31.66;98118.60;;;;110760;1248;41633;-64
2022/03/28 12:06:38;;;;;;;10.20;4.70;;;;;30.64;98121.40;;;;111053;1248;41254;-63
2022/03/28 12:09:07;;;;;;;12.80;4.70;;;;;28.54;98117.00;;;;111018;1249;41724;-65
2022/03/28 12:11:37;;;;;;;;;;;;;27.10;98116.80;;;;111080;1247;41151;-67
2022/03/28 12:14:06;;;;;;;12.40;5.10;;;;;25.42;98111.20;;;;111079;1247;41203;-73
2022/03/28 12:16:50;;;;;;;13.80;6.20;;;;;24.96;98109.00;;;;111176;1248;41731;-73
2022/03/28 12:19:24;;;;;;;13.20;4.90;;;;;23.80;98106.20;;;;111102;1249;41129;-72
2022/03/28 12:21:55;;;;;;;15.40;5.90;;;;;22.74;98106.80;;;;111066;1247;41146;-69
2022/03/28 12:24:25;;;;;;;10.50;4.90;;;;;22.36;98108.00;;;;111115;1247;41180;-67
2022/03/28 12:26:59;;;;;;;14.00;5.80;;;;;22.06;98099.80;;;;111103;1247;42004;-70
2022/03/28 12:29:32;;;;;;;12.10;4.60;;;;;21.54;98104.00;;;;111095;1248;41592;-66
2022/03/28 12:32:04;;;;;;;15.50;5.40;;;;;21.16;98098.40;;;;111102;1247;41308;-68